Time;durP1;ratioP1;P1;durP2;ratioP2;P2;SDS_P1;SDS_P2;PMS_P1;PMS_P2;Temp;Humidity;BMP_temperature;BMP_pressure;BME280_temperature;BME280_humidity;BME280_pressure;Samples;Min_cycle;Max_cycle;Signal;HPM_P1;HPM_P2
2021/03/18 00:00:15;;;;;;;6.50;2.77;;;4.00;99.90;;;;;;5045554;28;20553;-80
2021/03/18 00:02:42;;;;;;;7.80;2.70;;;4.10;99.90;;;;;;5048415;28;20216;-82
2021/03/18 00:05:09;;;;;;;8.17;2.77;;;4.10;99.90;;;;;;5048009;28;20221;-82
2021/03/18 00:07:36;;;;;;;7.93;2.33;;;4.10;99.90;;;;;;5046864;28;20268;-85
2021/03/18 00:10:04;;;;;;;4.33;2.40;;;4.20;99.90;;;;;;5048371;28;20225;-82
2021/03/18 00:12:32;;;;;;;4.33;2.00;;;4.20;99.90;;;;;;5046926;28;20213;-78
2021/03/18 00:14:58;;;;;;;8.07;2.60;;;4.20;99.90;;;;;;5046056;28;20209;-79
2021/03/18 00:17:25;;;;;;;3.93;2.27;;;4.20;99.90;;;;;;5047700;28;20186;-84
2021/03/18 00:19:51;;;;;;;6.17;2.20;;;4.30;99.90;;;;;;5045986;28;20267;-82
2021/03/18 00:22:18;;;;;;;6.27;2.07;;;4.30;99.90;;;;;;5047744;28;20292;-84
2021/03/18 00:24:44;;;;;;;6.10;1.90;;;4.30;99.90;;;;;;5046707;28;20210;-80
2021/03/18 00:27:12;;;;;;;9.33;2.63;;;4.30;99.90;;;;;;5047196;28;20251;-83
2021/03/18 00:29:40;;;;;;;8.80;2.43;;;4.40;99.90;;;;;;5048002;28;20644;-84
2021/03/18 00:32:07;;;;;;;9.90;3.27;;;4.40;99.90;;;;;;5031569;28;20210;-83
2021/03/18 00:34:33;;;;;;;3.77;1.80;;;4.40;99.90;;;;;;5027315;28;20206;-84
2021/03/18 00:37:00;;;;;;;8.13;3.30;;;4.40;99.90;;;;;;5013162;28;20253;-84
2021/03/18 00:39:26;;;;;;;12.87;3.07;;;4.50;99.90;;;;;;5006352;28;20711;-82
2021/03/18 00:41:52;;;;;;;14.07;4.03;;;4.60;99.90;;;;;;5038956;28;20230;-83
2021/03/18 00:44:19;;;;;;;15.43;3.17;;;4.60;99.90;;;;;;5041177;28;20248;-79
2021/03/18 00:46:46;;;;;;;11.27;3.10;;;4.70;99.90;;;;;;5045951;28;20206;-82
2021/03/18 00:49:12;;;;;;;10.07;2.60;;;4.70;99.90;;;;;;5036399;28;20251;-80
2021/03/18 00:51:39;;;;;;;13.23;2.53;;;4.70;99.90;;;;;;5045005;28;20205;-80
2021/03/18 00:54:06;;;;;;;14.67;3.23;;;4.80;99.90;;;;;;5026477;28;20206;-77
2021/03/18 00:56:33;;;;;;;10.93;3.00;;;4.70;99.90;;;;;;5024414;28;20253;-77
2021/03/18 00:58:59;;;;;;;8.93;3.03;;;4.80;99.90;;;;;;5025376;28;20970;-78
2021/03/18 01:01:26;;;;;;;9.00;2.83;;;4.80;99.90;;;;;;5025564;28;20232;-82
2021/03/18 01:03:53;;;;;;;11.90;3.07;;;4.80;99.90;;;;;;5025412;28;20270;-78
2021/03/18 01:06:22;;;;;;;10.47;4.33;;;4.80;99.90;;;;;;5024548;28;20195;-80
2021/03/18 01:08:49;;;;;;;16.17;3.50;;;4.80;99.90;;;;;;5025057;28;20218;-82
2021/03/18 01:11:17;;;;;;;13.87;3.67;;;4.90;99.90;;;;;;5024892;28;20195;-81
2021/03/18 01:13:45;;;;;;;12.87;3.07;;;4.90;99.90;;;;;;5024125;28;20199;-78
2021/03/18 01:16:15;;;;;;;17.47;3.10;;;4.90;99.90;;;;;;5024966;28;20199;-80
2021/03/18 01:18:45;;;;;;;19.90;4.53;;;4.90;99.90;;;;;;5044470;28;20230;-82
2021/03/18 01:21:13;;;;;;;20.10;4.73;;;4.90;99.90;;;;;;5045282;28;20216;-80
2021/03/18 01:23:39;;;;;;;17.93;4.13;;;5.00;99.90;;;;;;5041837;28;20931;-78
2021/03/18 01:26:07;;;;;;;16.27;3.87;;;5.00;99.90;;;;;;5024572;28;20210;-80
2021/03/18 01:28:34;;;;;;;16.43;4.37;;;5.00;99.90;;;;;;5037037;28;20202;-81
2021/03/18 01:31:03;;;;;;;17.70;4.70;;;5.00;99.90;;;;;;5044418;28;20206;-82
2021/03/18 01:33:30;;;;;;;16.67;4.30;;;5.00;99.90;;;;;;5044231;28;20259;-80
2021/03/18 01:36:00;;;;;;;24.70;4.97;;;5.00;99.90;;;;;;5043039;28;20234;-79
2021/03/18 01:38:28;;;;;;;29.40;4.77;;;5.10;99.90;;;;;;5049019;28;20226;-80
2021/03/18 01:40:54;;;;;;;28.13;5.33;;;5.00;99.90;;;;;;5044287;28;20261;-82
2021/03/18 01:43:21;;;;;;;24.30;4.60;;;5.00;99.90;;;;;;5048609;28;20206;-79
2021/03/18 01:45:47;;;;;;;18.40;4.10;;;5.00;99.90;;;;;;5048353;28;20271;-78
2021/03/18 01:48:14;;;;;;;38.57;6.97;;;5.00;99.90;;;;;;5047172;28;20202;-81
2021/03/18 01:50:41;;;;;;;33.87;5.47;;;5.10;99.90;;;;;;5049250;28;20210;-80
2021/03/18 01:53:07;;;;;;;34.57;5.80;;;5.10;99.90;;;;;;5047374;28;20538;-82
2021/03/18 01:55:37;;;;;;;25.20;4.43;;;5.20;99.90;;;;;;5047716;28;20892;-79
2021/03/18 01:58:04;;;;;;;25.00;5.63;;;5.20;99.90;;;;;;5048044;28;20323;-80
2021/03/18 02:00:31;;;;;;;27.20;4.90;;;5.20;99.90;;;;;;5038468;28;20215;-78
2021/03/18 02:02:59;;;;;;;24.07;4.93;;;5.10;99.90;;;;;;5028698;28;20206;-82
2021/03/18 02:05:26;;;;;;;31.93;5.63;;;5.10;99.90;;;;;;5028101;28;20202;-79
2021/03/18 02:07:53;;;;;;;23.27;5.70;;;5.20;99.90;;;;;;5028681;28;20276;-84
2021/03/18 02:10:22;;;;;;;33.67;6.67;;;5.20;99.90;;;;;;5029098;28;20202;-79
2021/03/18 02:12:49;;;;;;;28.70;5.50;;;5.30;99.90;;;;;;5028870;28;20555;-79
2021/03/18 02:15:17;;;;;;;21.57;5.77;;;5.30;99.90;;;;;;5028663;28;20618;-80
2021/03/18 02:17:54;;;;;;;26.10;4.40;;;5.30;99.90;;;;;;5028688;28;20203;-81
2021/03/18 02:20:52;;;;;;;29.77;6.50;;;5.30;99.90;;;;;;5028502;28;20186;-80
2021/03/18 02:23:54;;;;;;;31.37;5.30;;;5.30;99.90;;;;;;5028742;28;20586;-81
2021/03/18 02:26:43;;;;;;;30.13;4.93;;;5.30;99.90;;;;;;5028603;28;20199;-81
2021/03/18 02:29:36;;;;;;;22.43;5.40;;;5.30;99.90;;;;;;5026810;28;20195;-82
2021/03/18 02:32:18;;;;;;;21.03;4.43;;;5.30;99.90;;;;;;5029545;28;20210;-82
2021/03/18 02:35:18;;;;;;;27.23;5.63;;;5.30;99.90;;;;;;5028460;28;20201;-82
2021/03/18 02:37:50;;;;;;;22.60;4.60;;;5.30;99.90;;;;;;5027403;28;20717;-82
2021/03/18 02:40:19;;;;;;;18.37;4.90;;;5.30;99.90;;;;;;5028267;28;20679;-80
2021/03/18 02:42:52;;;;;;;27.37;4.73;;;5.30;99.90;;;;;;5027494;28;20266;-79
2021/03/18 02:45:20;;;;;;;27.80;5.63;;;5.30;99.90;;;;;;5027645;28;20261;-79
2021/03/18 02:47:50;;;;;;;26.03;5.63;;;5.30;99.90;;;;;;5038735;28;20220;-81
2021/03/18 02:50:18;;;;;;;33.57;5.70;;;5.30;99.90;;;;;;5047248;28;20227;-77
2021/03/18 02:52:46;;;;;;;31.50;6.53;;;5.30;99.90;;;;;;5045103;28;20212;-81
2021/03/18 02:55:13;;;;;;;26.23;6.30;;;5.30;99.90;;;;;;5046704;28;20209;-82
2021/03/18 02:57:42;;;;;;;28.37;5.47;;;5.20;99.90;;;;;;5026028;28;20207;-82
2021/03/18 03:00:12;;;;;;;32.23;7.60;;;5.20;99.90;;;;;;5024801;28;20218;-83
2021/03/18 03:02:39;;;;;;;20.30;4.43;;;5.20;99.90;;;;;;5027126;28;20203;-78
2021/03/18 03:05:07;;;;;;;22.70;5.17;;;5.10;99.90;;;;;;5026362;28;20221;-81
2021/03/18 03:07:35;;;;;;;27.53;6.63;;;5.10;99.90;;;;;;5027062;28;20210;-80
2021/03/18 03:10:05;;;;;;;33.03;6.23;;;5.00;99.90;;;;;;5027015;28;20198;-82
2021/03/18 03:12:33;;;;;;;19.73;5.80;;;5.00;99.90;;;;;;5029134;28;20210;-78
2021/03/18 03:15:00;;;;;;;24.20;5.10;;;5.00;99.90;;;;;;5046944;28;20194;-79
2021/03/18 03:17:28;;;;;;;17.30;4.80;;;4.90;99.90;;;;;;5046366;28;20198;-80
2021/03/18 03:19:58;;;;;;;14.13;3.60;;;4.90;99.90;;;;;;5045451;28;20801;-83
2021/03/18 03:22:25;;;;;;;19.97;3.90;;;4.90;99.90;;;;;;5031788;28;20293;-77
2021/03/18 03:24:56;;;;;;;16.23;4.53;;;4.80;99.90;;;;;;5025639;28;20637;-78
2021/03/18 03:27:23;;;;;;;15.50;4.63;;;4.70;99.90;;;;;;5035999;28;20704;-78
2021/03/18 03:29:50;;;;;;;18.60;5.00;;;4.70;99.90;;;;;;5046922;28;20209;-78
2021/03/18 03:32:17;;;;;;;17.30;4.83;;;4.70;99.90;;;;;;5045344;28;20198;-79
2021/03/18 03:34:43;;;;;;;21.30;3.83;;;4.70;99.90;;;;;;5044350;28;20189;-78
2021/03/18 03:37:10;;;;;;;20.23;4.50;;;4.70;99.90;;;;;;5042519;28;20530;-78
2021/03/18 03:39:38;;;;;;;19.23;4.40;;;4.70;99.90;;;;;;5028397;28;20616;-82
2021/03/18 03:42:07;;;;;;;23.33;4.17;;;4.70;99.90;;;;;;5022381;28;20242;-79
2021/03/18 03:44:33;;;;;;;19.10;4.73;;;4.70;99.90;;;;;;5023248;28;20787;-77
2021/03/18 03:47:00;;;;;;;10.63;3.23;;;4.70;99.90;;;;;;5024045;28;20217;-78
2021/03/18 03:49:26;;;;;;;21.60;4.47;;;4.70;99.90;;;;;;5023671;28;20195;-79
2021/03/18 03:52:04;;;;;;;16.50;3.53;;;4.70;99.90;;;;;;5041258;28;20229;-78
2021/03/18 03:54:33;;;;;;;19.73;4.57;;;4.70;99.90;;;;;;5029402;28;20786;-77
2021/03/18 03:57:05;;;;;;;13.07;4.83;;;4.70;99.90;;;;;;5023523;28;20218;-81
2021/03/18 03:59:37;;;;;;;13.47;3.73;;;4.70;99.90;;;;;;5022488;28;20233;-77
2021/03/18 04:02:06;;;;;;;12.37;3.30;;;4.70;99.90;;;;;;5023614;28;20606;-79
2021/03/18 04:04:36;;;;;;;13.03;4.10;;;4.70;99.90;;;;;;5022517;28;20213;-80
2021/03/18 04:07:06;;;;;;;14.47;4.07;;;4.60;99.90;;;;;;5022173;28;20610;-78
2021/03/18 04:09:34;;;;;;;20.23;5.30;;;4.70;99.90;;;;;;5039852;28;20197;-81
2021/03/18 04:12:02;;;;;;;17.07;4.27;;;4.70;99.90;;;;;;5045217;28;20205;-82
2021/03/18 04:14:31;;;;;;;13.97;4.13;;;4.70;99.90;;;;;;5042632;28;20271;-82
2021/03/18 04:17:04;;;;;;;17.53;3.43;;;4.60;99.90;;;;;;5043666;28;20209;-78
2021/03/18 04:19:30;;;;;;;22.30;4.87;;;4.60;99.90;;;;;;5042453;28;20233;-78
2021/03/18 04:21:57;;;;;;;21.17;4.67;;;4.60;99.90;;;;;;5040032;28;20673;-77
2021/03/18 04:24:25;;;;;;;19.57;5.57;;;4.60;99.90;;;;;;5023085;28;20191;-78
2021/03/18 04:26:53;;;;;;;25.37;4.77;;;4.60;99.90;;;;;;5024687;28;20599;-82
2021/03/18 04:29:20;;;;;;;26.20;5.27;;;4.70;99.90;;;;;;5025489;28;20203;-81
2021/03/18 04:31:47;;;;;;;18.03;4.80;;;4.80;99.90;;;;;;5036148;28;20210;-79
2021/03/18 04:34:18;;;;;;;20.90;5.70;;;4.80;99.90;;;;;;5044830;28;20202;-79
2021/03/18 04:36:45;;;;;;;24.40;4.97;;;4.80;99.90;;;;;;5044962;28;20233;-81
2021/03/18 04:39:13;;;;;;;26.60;5.90;;;4.80;99.90;;;;;;5044425;28;20556;-78
2021/03/18 04:41:40;;;;;;;18.97;4.40;;;4.80;99.90;;;;;;5033064;28;20231;-78
2021/03/18 04:44:08;;;;;;;16.83;4.47;;;4.80;99.90;;;;;;5002672;28;20891;-79
2021/03/18 04:46:37;;;;;;;14.63;4.10;;;4.90;99.90;;;;;;5002252;28;20278;-81
2021/03/18 04:49:04;;;;;;;21.77;4.67;;;4.90;99.90;;;;;;5005972;28;21066;-82
2021/03/18 04:51:31;;;;;;;19.07;5.57;;;4.90;99.90;;;;;;5006648;28;20207;-79
2021/03/18 04:53:58;;;;;;;29.17;5.87;;;5.00;99.90;;;;;;5007245;28;20607;-82
2021/03/18 04:56:25;;;;;;;31.30;4.63;;;5.10;99.90;;;;;;5045790;28;20237;-82
2021/03/18 04:58:54;;;;;;;26.03;5.83;;;5.20;99.90;;;;;;5046460;28;20236;-83
2021/03/18 05:01:23;;;;;;;27.37;4.77;;;5.20;99.90;;;;;;5018077;28;20289;-83
2021/03/18 05:03:50;;;;;;;27.37;4.70;;;5.30;99.90;;;;;;5007308;28;20207;-79
2021/03/18 05:06:17;;;;;;;24.43;5.77;;;5.30;99.90;;;;;;5006996;28;20203;-84
2021/03/18 05:08:44;;;;;;;25.07;4.53;;;5.40;99.90;;;;;;5006179;28;20622;-83
2021/03/18 05:11:10;;;;;;;23.63;4.67;;;5.50;99.90;;;;;;5007324;28;20219;-82
2021/03/18 05:13:38;;;;;;;19.13;4.50;;;5.50;99.90;;;;;;5032600;22;20248;-79
2021/03/18 05:16:05;;;;;;;16.33;4.50;;;5.40;99.90;;;;;;5038192;28;20206;-83
2021/03/18 05:18:32;;;;;;;21.93;4.07;;;5.40;99.90;;;;;;5029381;28;20226;-81
2021/03/18 05:21:00;;;;;;;25.43;4.10;;;5.40;99.90;;;;;;5046762;28;20210;-79
2021/03/18 05:23:27;;;;;;;32.40;5.13;;;5.40;99.90;;;;;;5046526;28;20208;-79
2021/03/18 05:25:54;;;;;;;14.57;3.00;;;5.40;99.90;;;;;;5046333;28;20241;-80
2021/03/18 05:28:21;;;;;;;18.67;3.17;;;5.40;99.90;;;;;;5049258;28;20205;-82
2021/03/18 05:30:48;;;;;;;22.27;4.23;;;5.40;99.90;;;;;;5028970;28;20209;-82
2021/03/18 05:33:14;;;;;;;14.13;3.03;;;5.40;99.90;;;;;;5028077;28;20198;-79
2021/03/18 05:35:42;;;;;;;22.07;4.23;;;5.50;99.90;;;;;;5027821;28;20226;-82
2021/03/18 05:38:10;;;;;;;15.60;3.37;;;5.50;99.90;;;;;;5028479;28;20230;-79
2021/03/18 05:40:37;;;;;;;16.03;3.93;;;5.50;99.90;;;;;;5029526;28;20213;-79
2021/03/18 05:43:06;;;;;;;16.90;3.67;;;5.50;99.90;;;;;;5032999;28;20205;-81
2021/03/18 05:45:32;;;;;;;18.80;3.37;;;5.50;99.90;;;;;;5048567;28;20210;-83
2021/03/18 05:47:59;;;;;;;21.07;4.30;;;5.50;99.90;;;;;;5049634;28;20915;-78
2021/03/18 05:50:26;;;;;;;13.37;3.60;;;5.50;99.90;;;;;;5048473;28;20206;-83
2021/03/18 05:52:53;;;;;;;16.37;3.13;;;5.50;99.90;;;;;;5036989;28;20210;-80
2021/03/18 05:55:21;;;;;;;17.53;3.90;;;5.50;99.90;;;;;;5029509;28;20641;-83
2021/03/18 05:57:50;;;;;;;15.70;4.07;;;5.50;99.90;;;;;;5029553;28;20217;-79
2021/03/18 06:00:19;;;;;;;18.47;3.90;;;5.50;99.90;;;;;;5028473;28;20226;-82
2021/03/18 06:02:45;;;;;;;18.47;3.43;;;5.50;99.90;;;;;;5026816;28;20203;-78
2021/03/18 06:05:13;;;;;;;17.30;3.10;;;5.50;99.90;;;;;;5025488;28;20207;-79
2021/03/18 06:07:41;;;;;;;15.47;4.23;;;5.50;99.90;;;;;;5025411;28;20570;-78
2021/03/18 06:10:09;;;;;;;15.30;3.37;;;5.50;99.90;;;;;;5025881;28;20676;-81
2021/03/18 06:12:37;;;;;;;18.57;4.97;;;5.50;99.90;;;;;;5025717;28;20758;-77
2021/03/18 06:15:04;;;;;;;17.93;3.70;;;5.60;99.90;;;;;;5026474;28;20238;-80
2021/03/18 06:17:33;;;;;;;18.07;3.70;;;5.60;99.90;;;;;;5034789;28;20206;-78
2021/03/18 06:20:00;;;;;;;16.83;3.93;;;5.60;99.90;;;;;;5045529;28;20229;-77
2021/03/18 06:22:33;;;;;;;10.50;3.20;;;5.50;99.90;;;;;;5045316;28;20217;-78
2021/03/18 06:24:59;;;;;;;11.47;2.77;;;5.50;99.90;;;;;;5028067;28;20645;-76
2021/03/18 06:27:25;;;;;;;11.83;3.37;;;5.50;99.90;;;;;;5045116;28;20213;-78
2021/03/18 06:29:52;;;;;;;13.87;2.90;;;5.50;99.90;;;;;;5046325;28;20497;-78
2021/03/18 06:32:20;;;;;;;16.70;3.40;;;5.50;99.90;;;;;;5044100;28;20206;-79
2021/03/18 06:34:50;;;;;;;11.10;2.70;;;5.50;99.90;;;;;;5045367;28;20213;-79
2021/03/18 06:37:34;;;;;;;10.50;3.13;;;5.50;99.90;;;;;;5045509;28;20226;-79
2021/03/18 06:40:09;;;;;;;7.67;2.23;;;5.50;99.90;;;;;;5029582;28;20276;-77
2021/03/18 06:42:35;;;;;;;7.63;2.33;;;5.50;99.90;;;;;;5024808;28;20198;-85
2021/03/18 06:45:07;;;;;;;6.67;2.53;;;5.50;99.90;;;;;;5028310;28;20218;-83
2021/03/18 06:47:42;;;;;;;6.73;2.03;;;5.60;99.90;;;;;;5028347;28;20472;-85
2021/03/18 06:50:11;;;;;;;10.37;2.47;;;5.60;99.90;;;;;;5028709;28;20562;-83
2021/03/18 06:52:38;;;;;;;8.50;2.53;;;5.60;99.90;;;;;;5028208;28;20203;-85
2021/03/18 06:55:07;;;;;;;15.53;3.17;;;5.60;99.90;;;;;;5027479;28;20203;-80
2021/03/18 06:57:34;;;;;;;14.97;3.27;;;5.60;99.90;;;;;;5026623;28;20199;-78
2021/03/18 07:00:00;;;;;;;11.50;2.90;;;5.60;99.90;;;;;;5027620;28;20308;-79
2021/03/18 07:02:27;;;;;;;9.27;2.63;;;5.70;99.90;;;;;;5025698;28;20211;-77
2021/03/18 07:04:55;;;;;;;13.40;3.10;;;5.70;99.90;;;;;;5027022;28;20376;-79
2021/03/18 07:07:25;;;;;;;12.53;3.47;;;5.70;99.90;;;;;;5025531;28;20209;-79
2021/03/18 07:09:53;;;;;;;10.30;3.20;;;5.70;99.90;;;;;;5025816;28;20441;-80
2021/03/18 07:12:25;;;;;;;13.80;2.47;;;5.80;99.90;;;;;;5024817;28;20345;-78
2021/03/18 07:14:53;;;;;;;13.07;3.47;;;5.80;99.90;;;;;;5025449;28;20241;-76
2021/03/18 07:17:27;;;;;;;15.17;3.63;;;5.90;99.90;;;;;;5024292;28;20211;-79
2021/03/18 07:20:09;;;;;;;13.73;2.70;;;5.90;99.90;;;;;;5036799;28;20599;-78
2021/03/18 07:22:41;;;;;;;12.83;2.30;;;6.00;99.90;;;;;;5045603;28;20209;-78
2021/03/18 07:25:09;;;;;;;8.23;2.23;;;6.10;99.90;;;;;;5040460;28;20291;-77
2021/03/18 07:27:40;;;;;;;15.77;2.70;;;6.10;99.90;;;;;;5024694;28;20532;-77
2021/03/18 07:30:08;;;;;;;9.07;2.90;;;6.20;99.90;;;;;;5026143;28;20250;-77
2021/03/18 07:32:35;;;;;;;11.67;2.10;;;6.20;99.90;;;;;;5024672;28;20300;-78
2021/03/18 07:35:01;;;;;;;7.27;1.80;;;6.30;99.90;;;;;;5024456;28;20199;-77
2021/03/18 07:37:27;;;;;;;9.83;2.10;;;6.30;99.90;;;;;;5023762;28;20580;-78
2021/03/18 07:39:54;;;;;;;7.07;1.80;;;6.40;99.90;;;;;;5024972;28;20226;-78
2021/03/18 07:42:22;;;;;;;8.43;1.83;;;6.40;99.90;;;;;;5024629;28;20207;-77
2021/03/18 07:44:50;;;;;;;7.93;2.13;;;6.50;99.90;;;;;;5030383;28;20677;-78
2021/03/18 07:47:17;;;;;;;7.20;1.70;;;6.60;99.90;;;;;;5044801;28;20601;-77
2021/03/18 07:49:46;;;;;;;5.43;1.93;;;6.70;99.90;;;;;;5030085;28;20622;-77
2021/03/18 07:52:16;;;;;;;10.73;2.20;;;6.70;99.90;;;;;;5043293;28;20210;-77
2021/03/18 07:58:06;;;;;;;5.50;2.07;;;6.80;99.90;;;;;;4987066;28;20216;-79
2021/03/18 08:00:33;;;;;;;11.20;2.23;;;6.70;99.90;;;;;;5043844;28;20407;-84
2021/03/18 08:03:27;;;;;;;13.73;3.07;;;6.70;99.90;;;;;;5033532;28;20202;-84
2021/03/18 08:05:54;;;;;;;8.67;2.80;;;6.70;99.90;;;;;;5027329;28;20574;-81
2021/03/18 08:08:36;;;;;;;12.83;2.90;;;6.70;99.90;;;;;;5026612;28;20286;-82
2021/03/18 08:11:05;;;;;;;11.83;2.93;;;6.70;99.90;;;;;;5040690;28;20217;-81
2021/03/18 08:13:37;;;;;;;10.60;2.80;;;6.70;99.90;;;;;;5047095;28;20226;-78
2021/03/18 08:16:06;;;;;;;12.77;2.90;;;6.80;99.90;;;;;;5046553;28;20198;-79
2021/03/18 08:18:38;;;;;;;9.07;2.30;;;6.80;99.90;;;;;;5033238;28;20210;-83
2021/03/18 08:21:09;;;;;;;10.00;2.40;;;6.90;99.90;;;;;;5025534;28;20195;-79
2021/03/18 08:23:54;;;;;;;8.30;2.77;;;6.80;99.90;;;;;;5024687;28;20237;-78
2021/03/18 08:26:46;;;;;;;10.57;3.33;;;6.80;99.90;;;;;;5025499;28;20213;-85
2021/03/18 08:29:18;;;;;;;13.20;2.50;;;6.80;99.90;;;;;;5030140;28;20217;-85
2021/03/18 08:32:04;;;;;;;11.73;2.80;;;6.80;99.90;;;;;;5030910;28;20872;-86
2021/03/18 08:34:49;;;;;;;14.00;4.10;;;6.80;99.90;;;;;;5029101;28;20198;-86
2021/03/18 08:37:30;;;;;;;17.13;4.30;;;6.80;99.90;;;;;;5038390;28;20534;-80
2021/03/18 08:39:56;;;;;;;14.60;4.07;;;6.90;99.90;;;;;;5042921;28;20225;-78
2021/03/18 08:42:43;;;;;;;12.03;3.47;;;6.80;99.90;;;;;;5039658;28;20202;-77
2021/03/18 08:45:36;;;;;;;5.60;1.97;;;6.80;99.90;;;;;;5041662;28;20204;-78
2021/03/18 08:48:15;;;;;;;6.30;2.07;;;6.70;99.90;;;;;;5042996;28;20194;-78
2021/03/18 08:51:04;;;;;;;4.40;2.03;;;6.80;99.90;;;;;;5025795;28;20225;-79
2021/03/18 08:53:38;;;;;;;7.07;3.30;;;6.80;99.90;;;;;;5018542;28;20507;-78
2021/03/18 08:56:06;;;;;;;11.67;2.73;;;6.90;99.90;;;;;;5023119;28;20202;-79
2021/03/18 08:58:54;;;;;;;6.97;1.63;;;7.00;99.90;;;;;;5022378;28;20211;-80
2021/03/18 09:01:24;;;;;;;5.73;1.77;;;7.10;99.90;;;;;;5023398;28;20199;-78
2021/03/18 09:03:58;;;;;;;8.50;2.20;;;7.30;99.90;;;;;;5022507;28;20206;-79
2021/03/18 09:06:27;;;;;;;7.47;1.70;;;7.40;99.90;;;;;;5037221;28;20213;-79
2021/03/18 09:08:53;;;;;;;7.47;2.63;;;7.60;99.90;;;;;;5041992;28;20292;-80
2021/03/18 09:11:26;;;;;;;5.53;1.77;;;7.70;99.90;;;;;;5035556;28;20218;-77
2021/03/18 09:13:53;;;;;;;9.43;3.10;;;7.80;99.90;;;;;;5022943;28;20245;-77
2021/03/18 09:16:21;;;;;;;7.60;1.87;;;7.80;99.90;;;;;;5022501;28;20599;-78
2021/03/18 09:18:49;;;;;;;7.73;2.10;;;7.90;99.90;;;;;;5021065;28;20233;-79
2021/03/18 09:21:15;;;;;;;4.20;1.73;;;7.90;99.90;;;;;;5022178;28;20586;-78
2021/03/18 09:23:43;;;;;;;8.07;2.40;;;8.00;99.90;;;;;;5020362;28;20831;-79
2021/03/18 09:26:11;;;;;;;5.80;2.17;;;8.00;99.90;;;;;;5023384;28;20199;-77
2021/03/18 09:28:44;;;;;;;6.70;2.13;;;8.10;99.90;;;;;;5023328;28;20210;-79
2021/03/18 09:31:13;;;;;;;6.30;1.90;;;8.20;99.90;;;;;;5023663;28;20202;-77
2021/03/18 09:33:41;;;;;;;4.00;1.80;;;8.30;99.90;;;;;;5023099;28;20862;-80
2021/03/18 09:36:23;;;;;;;7.10;1.90;;;8.30;99.90;;;;;;5023229;28;20230;-79
2021/03/18 09:39:02;;;;;;;7.33;2.40;;;8.40;99.90;;;;;;5023156;28;20316;-77
2021/03/18 09:41:30;;;;;;;6.30;1.70;;;8.50;99.90;;;;;;5026238;28;20218;-81
2021/03/18 09:44:02;;;;;;;6.30;2.30;;;8.50;99.90;;;;;;5025374;28;20234;-81
2021/03/18 09:46:30;;;;;;;6.77;2.33;;;8.60;99.90;;;;;;5025953;28;20505;-81
2021/03/18 09:48:57;;;;;;;5.37;1.90;;;8.50;99.90;;;;;;5025088;28;20293;-81
2021/03/18 09:51:24;;;;;;;7.13;2.03;;;8.40;99.90;;;;;;5024577;28;20230;-79
2021/03/18 09:53:58;;;;;;;11.93;3.03;;;8.30;99.90;;;;;;5045159;28;20307;-83
2021/03/18 09:56:25;;;;;;;14.20;5.37;;;8.20;99.90;;;;;;5046518;28;20212;-83
2021/03/18 09:58:52;;;;;;;11.60;2.87;;;8.20;99.90;;;;;;5049845;28;20218;-86
2021/03/18 10:01:21;;;;;;;11.50;3.70;;;8.10;99.90;;;;;;5049046;28;20245;-83
2021/03/18 10:03:53;;;;;;;8.73;2.37;;;8.00;99.90;;;;;;5049709;28;20217;-80
2021/03/18 10:06:26;;;;;;;8.93;2.63;;;8.00;99.90;;;;;;5046745;28;20206;-80
2021/03/18 10:08:54;;;;;;;9.77;2.67;;;8.00;99.90;;;;;;5047888;28;20233;-82
2021/03/18 10:11:24;;;;;;;13.63;2.83;;;8.00;99.90;;;;;;5049837;28;20763;-78
2021/03/18 10:13:51;;;;;;;5.40;1.87;;;8.00;99.90;;;;;;5068152;28;20562;-81
2021/03/18 10:16:18;;;;;;;9.50;2.30;;;8.00;99.90;;;;;;5068949;28;20595;-78
2021/03/18 10:18:46;;;;;;;9.47;2.77;;;8.00;99.90;;;;;;5068391;28;20202;-80
2021/03/18 10:21:12;;;;;;;13.57;3.10;;;8.10;99.90;;;;;;5026202;28;20253;-81
2021/03/18 10:23:40;;;;;;;6.07;2.30;;;8.10;99.90;;;;;;5026463;28;20203;-81
2021/03/18 10:26:06;;;;;;;10.60;2.03;;;8.10;99.90;;;;;;5026876;28;20210;-81
2021/03/18 10:28:33;;;;;;;4.67;1.20;;;8.10;99.90;;;;;;5032062;28;20206;-78
2021/03/18 10:31:06;;;;;;;9.27;1.80;;;8.20;99.90;;;;;;5045884;28;20195;-81
2021/03/18 10:33:35;;;;;;;8.60;1.60;;;8.20;99.90;;;;;;5045396;28;20919;-83
2021/03/18 10:36:06;;;;;;;10.17;1.80;;;8.20;99.90;;;;;;5044709;28;20218;-80
2021/03/18 10:38:35;;;;;;;9.37;2.83;;;8.20;99.90;;;;;;5043852;28;20206;-81
2021/03/18 10:41:07;;;;;;;5.23;1.73;;;8.30;99.90;;;;;;5024897;28;20661;-80
2021/03/18 10:43:37;;;;;;;6.97;2.77;;;8.30;99.90;;;;;;5025450;28;20217;-78
2021/03/18 10:46:05;;;;;;;7.50;2.40;;;8.30;99.90;;;;;;5025611;28;20211;-78
2021/03/18 10:48:34;;;;;;;9.80;2.03;;;8.30;99.90;;;;;;5025646;28;20229;-81
2021/03/18 10:51:06;;;;;;;8.40;1.67;;;8.20;99.90;;;;;;5026839;28;20206;-80
2021/03/18 10:53:35;;;;;;;5.60;1.40;;;8.20;99.90;;;;;;5026127;28;20207;-82
2021/03/18 10:56:04;;;;;;;6.47;1.80;;;8.20;99.90;;;;;;5036615;28;20209;-82
2021/03/18 10:58:31;;;;;;;12.57;2.53;;;8.30;99.90;;;;;;5046516;28;20209;-81
2021/03/18 11:01:00;;;;;;;6.83;1.40;;;8.30;99.90;;;;;;5046917;28;20198;-81
2021/03/18 11:03:29;;;;;;;6.63;1.33;;;8.20;99.90;;;;;;5045339;28;20351;-80
2021/03/18 11:05:56;;;;;;;6.83;1.50;;;8.30;99.90;;;;;;5047913;28;20201;-82
2021/03/18 11:08:28;;;;;;;11.63;2.30;;;8.40;99.90;;;;;;5045508;28;20201;-77
2021/03/18 11:10:55;;;;;;;7.83;2.17;;;8.40;99.90;;;;;;5034233;28;20490;-82
2021/03/18 11:13:24;;;;;;;14.83;2.27;;;8.40;99.90;;;;;;5027121;28;20242;-79
2021/03/18 11:15:59;;;;;;;5.77;1.60;;;8.50;99.90;;;;;;5027711;28;20235;-79
2021/03/18 11:18:34;;;;;;;8.03;2.43;;;8.40;99.90;;;;;;5027451;28;20264;-79
2021/03/18 11:21:01;;;;;;;12.07;2.30;;;8.50;99.90;;;;;;5047012;28;20212;-82
2021/03/18 11:23:30;;;;;;;9.73;1.80;;;8.50;99.90;;;;;;5046430;28;20206;-80
2021/03/18 11:25:58;;;;;;;8.97;1.50;;;8.50;99.90;;;;;;5047571;28;20232;-80
2021/03/18 11:28:26;;;;;;;6.03;1.07;;;8.50;99.90;;;;;;5038562;28;20210;-78
2021/03/18 11:30:54;;;;;;;8.27;1.40;;;8.60;99.90;;;;;;5028382;28;20202;-82
2021/03/18 11:33:21;;;;;;;7.70;1.70;;;8.70;99.90;;;;;;5027696;28;20202;-80
2021/03/18 11:35:50;;;;;;;6.77;1.27;;;8.80;99.90;;;;;;5027650;28;20526;-75
2021/03/18 11:38:18;;;;;;;5.20;1.30;;;8.80;99.90;;;;;;5034885;28;20202;-84
2021/03/18 11:40:46;;;;;;;11.03;1.80;;;8.80;99.90;;;;;;5048193;28;20323;-84
2021/03/18 11:43:13;;;;;;;4.00;1.33;;;8.90;99.90;;;;;;5048040;28;20205;-80
2021/03/18 11:45:41;;;;;;;6.23;1.70;;;8.90;99.90;;;;;;5046871;28;20239;-85
2021/03/18 11:48:09;;;;;;;7.83;1.27;;;8.90;99.90;;;;;;5048328;28;20198;-77
2021/03/18 11:50:36;;;;;;;6.50;1.87;;;9.00;99.90;;;;;;5046538;28;20264;-83
2021/03/18 11:53:03;;;;;;;10.43;2.00;;;9.00;99.90;;;;;;5045307;28;20202;-79
2021/03/18 11:55:29;;;;;;;5.27;1.43;;;9.10;99.90;;;;;;5026300;28;20601;-83
2021/03/18 11:57:57;;;;;;;10.50;1.70;;;9.10;99.90;;;;;;5026314;28;20202;-76
2021/03/18 12:00:26;;;;;;;4.30;1.43;;;9.20;99.90;;;;;;5026362;28;20231;-82
2021/03/18 12:02:54;;;;;;;7.23;1.63;;;9.30;99.90;;;;;;5026523;28;20650;-80
2021/03/18 12:05:20;;;;;;;8.60;2.40;;;9.30;99.90;;;;;;5024926;28;20232;-81
2021/03/18 12:07:47;;;;;;;9.07;2.30;;;9.40;99.90;;;;;;5025343;28;20206;-78
2021/03/18 12:10:14;;;;;;;12.73;2.33;;;9.40;99.90;;;;;;5025049;28;20207;-79
2021/03/18 12:12:40;;;;;;;7.00;1.63;;;9.30;99.90;;;;;;5025250;28;20588;-78
2021/03/18 12:15:09;;;;;;;7.60;1.80;;;9.30;99.90;;;;;;5047013;28;20240;-83
2021/03/18 12:17:36;;;;;;;4.70;1.20;;;9.30;99.90;;;;;;5064433;28;20220;-82
2021/03/18 12:20:06;;;;;;;6.60;1.67;;;9.10;99.90;;;;;;5063292;28;20221;-77
2021/03/18 12:22:33;;;;;;;5.20;1.50;;;9.10;99.90;;;;;;5064003;28;20204;-77
2021/03/18 12:24:59;;;;;;;8.30;3.07;;;8.90;99.90;;;;;;5033354;28;20211;-79
2021/03/18 12:27:26;;;;;;;6.70;1.73;;;8.80;99.90;;;;;;5023959;28;20187;-78
2021/03/18 12:29:52;;;;;;;7.50;1.80;;;8.80;99.90;;;;;;5025581;28;20210;-80
2021/03/18 12:32:19;;;;;;;3.67;1.47;;;8.80;99.90;;;;;;5024818;28;20213;-84
2021/03/18 12:34:45;;;;;;;6.90;1.60;;;8.80;99.90;;;;;;5023637;28;20237;-77
2021/03/18 12:37:14;;;;;;;9.60;1.93;;;8.90;99.90;;;;;;5025126;28;20258;-78
2021/03/18 12:39:41;;;;;;;5.70;1.60;;;9.10;99.90;;;;;;5041685;28;20904;-81
2021/03/18 12:42:08;;;;;;;6.00;2.30;;;9.30;99.90;;;;;;5045992;28;20202;-79
2021/03/18 12:44:35;;;;;;;5.53;1.97;;;9.40;99.90;;;;;;5044442;28;20934;-82
2021/03/18 12:47:01;;;;;;;5.83;1.60;;;9.50;99.90;;;;;;5025390;28;20282;-83
2021/03/18 12:49:27;;;;;;;7.97;2.07;;;9.60;99.90;;;;;;5023782;28;20245;-79
2021/03/18 12:51:53;;;;;;;6.63;1.80;;;9.60;99.90;;;;;;5041592;28;20602;-82
2021/03/18 12:54:21;;;;;;;6.43;1.43;;;9.50;99.90;;;;;;5047225;28;20206;-84
2021/03/18 12:56:47;;;;;;;4.57;1.27;;;9.40;99.90;;;;;;5047990;28;20205;-84
2021/03/18 12:59:13;;;;;;;5.13;2.13;;;9.30;99.90;;;;;;5048978;28;20229;-87
2021/03/18 13:01:40;;;;;;;6.30;1.23;;;9.10;99.90;;;;;;5047161;28;20197;-84
2021/03/18 13:04:07;;;;;;;5.03;1.87;;;9.00;99.90;;;;;;5048207;28;20208;-84